Weather at Jena-Schöngleina Airfield

Public forecast

Using degrees Celsius for public forecast. Weather courtesy of forecast.io.

Closest aviation weather report (METAR) to Jena-Schöngleina Airfield

Closest report is Erfurt Airport, 28.9 nm (53.5 km) W. Retrieved 2020/09/28 01:20 UTC (0 seconds ago):

EDDE 280120Z 20008KT CAVOK 07/06 Q1009

Closest aviation forecast (TAF) to Jena-Schöngleina Airfield

Closest forecast is Erfurt Airport, 28.9 nm (53.5 km) W. Retrieved 2020-09-28 00:27 UTC (34 minutes ago):

TAF TAF EDDE 272300Z 2800/2824 19004KT 9999 FEW040